sensor_id;sensor_type;location;lat;lon;timestamp;P1;durP1;ratioP1;P2;durP2;ratioP2
69381;SDS011;56560;50.692;12.844;2022-12-13T00:01:32;17.67;;;5.65;;
69381;SDS011;56560;50.692;12.844;2022-12-13T00:03:59;15.38;;;5.18;;
69381;SDS011;56560;50.692;12.844;2022-12-13T00:06:26;16.93;;;5.17;;
69381;SDS011;56560;50.692;12.844;2022-12-13T00:08:52;13.73;;;5.13;;
69381;SDS011;56560;50.692;12.844;2022-12-13T00:11:18;16.35;;;5.70;;
69381;SDS011;56560;50.692;12.844;2022-12-13T00:13:44;15.40;;;5.22;;
69381;SDS011;56560;50.692;12.844;2022-12-13T00:16:16;14.93;;;5.10;;
69381;SDS011;56560;50.692;12.844;2022-12-13T00:18:47;18.85;;;5.20;;
69381;SDS011;56560;50.692;12.844;2022-12-13T00:21:15;13.32;;;4.38;;
69381;SDS011;56560;50.692;12.844;2022-12-13T00:23:42;18.58;;;5.50;;
69381;SDS011;56560;50.692;12.844;2022-12-13T00:26:12;17.67;;;5.43;;
69381;SDS011;56560;50.692;12.844;2022-12-13T00:28:40;20.00;;;5.80;;
69381;SDS011;56560;50.692;12.844;2022-12-13T00:31:06;16.98;;;5.28;;
69381;SDS011;56560;50.692;12.844;2022-12-13T00:33:32;16.25;;;5.00;;
69381;SDS011;56560;50.692;12.844;2022-12-13T00:35:58;15.95;;;5.22;;
69381;SDS011;56560;50.692;12.844;2022-12-13T00:38:26;19.33;;;5.97;;
69381;SDS011;56560;50.692;12.844;2022-12-13T00:40:52;18.67;;;5.22;;
69381;SDS011;56560;50.692;12.844;2022-12-13T00:43:18;20.17;;;5.63;;
69381;SDS011;56560;50.692;12.844;2022-12-13T00:45:43;16.85;;;4.95;;
69381;SDS011;56560;50.692;12.844;2022-12-13T00:48:09;14.77;;;4.27;;
69381;SDS011;56560;50.692;12.844;2022-12-13T00:50:36;17.98;;;6.18;;
69381;SDS011;56560;50.692;12.844;2022-12-13T00:53:02;17.27;;;5.10;;
69381;SDS011;56560;50.692;12.844;2022-12-13T00:55:28;16.58;;;5.38;;
69381;SDS011;56560;50.692;12.844;2022-12-13T00:57:55;16.10;;;4.82;;
69381;SDS011;56560;50.692;12.844;2022-12-13T01:00:21;17.75;;;5.80;;
69381;SDS011;56560;50.692;12.844;2022-12-13T01:02:46;8.10;;;3.10;;
69381;SDS011;56560;50.692;12.844;2022-12-13T01:05:12;16.75;;;4.65;;
69381;SDS011;56560;50.692;12.844;2022-12-13T01:07:38;10.95;;;2.97;;
69381;SDS011;56560;50.692;12.844;2022-12-13T01:10:08;12.27;;;3.57;;
69381;SDS011;56560;50.692;12.844;2022-12-13T01:12:35;15.15;;;4.70;;
69381;SDS011;56560;50.692;12.844;2022-12-13T01:15:01;15.02;;;4.43;;
69381;SDS011;56560;50.692;12.844;2022-12-13T01:17:27;11.63;;;3.63;;
69381;SDS011;56560;50.692;12.844;2022-12-13T01:19:54;11.98;;;3.42;;
69381;SDS011;56560;50.692;12.844;2022-12-13T01:22:20;12.40;;;3.60;;
69381;SDS011;56560;50.692;12.844;2022-12-13T01:24:46;15.33;;;5.10;;
69381;SDS011;56560;50.692;12.844;2022-12-13T01:27:12;17.25;;;5.38;;
69381;SDS011;56560;50.692;12.844;2022-12-13T01:29:37;16.13;;;4.67;;
69381;SDS011;56560;50.692;12.844;2022-12-13T01:32:03;10.80;;;3.55;;
69381;SDS011;56560;50.692;12.844;2022-12-13T01:34:29;17.35;;;4.78;;
69381;SDS011;56560;50.692;12.844;2022-12-13T01:36:54;13.35;;;4.20;;
69381;SDS011;56560;50.692;12.844;2022-12-13T01:39:21;16.23;;;4.77;;
69381;SDS011;56560;50.692;12.844;2022-12-13T01:41:48;10.57;;;3.47;;
69381;SDS011;56560;50.692;12.844;2022-12-13T01:47:21;16.25;;;4.68;;
69381;SDS011;56560;50.692;12.844;2022-12-13T01:49:50;11.13;;;3.40;;
69381;SDS011;56560;50.692;12.844;2022-12-13T01:52:17;15.03;;;4.47;;
69381;SDS011;56560;50.692;12.844;2022-12-13T01:54:45;13.80;;;4.05;;
69381;SDS011;56560;50.692;12.844;2022-12-13T01:57:12;9.18;;;2.47;;
69381;SDS011;56560;50.692;12.844;2022-12-13T01:59:41;10.88;;;3.60;;
69381;SDS011;56560;50.692;12.844;2022-12-13T02:02:07;16.90;;;4.32;;
69381;SDS011;56560;50.692;12.844;2022-12-13T02:04:58;15.67;;;4.80;;
69381;SDS011;56560;50.692;12.844;2022-12-13T02:07:44;16.23;;;5.00;;
69381;SDS011;56560;50.692;12.844;2022-12-13T02:10:11;20.40;;;4.95;;
69381;SDS011;56560;50.692;12.844;2022-12-13T02:12:37;10.57;;;3.47;;
69381;SDS011;56560;50.692;12.844;2022-12-13T02:15:06;6.53;;;1.93;;
69381;SDS011;56560;50.692;12.844;2022-12-13T02:34:20;9.98;;;3.15;;
69381;SDS011;56560;50.692;12.844;2022-12-13T02:40:02;7.22;;;2.53;;
69381;SDS011;56560;50.692;12.844;2022-12-13T02:43:00;10.10;;;3.37;;
69381;SDS011;56560;50.692;12.844;2022-12-13T02:45:29;19.77;;;4.70;;
69381;SDS011;56560;50.692;12.844;2022-12-13T02:48:20;10.13;;;3.53;;
69381;SDS011;56560;50.692;12.844;2022-12-13T02:50:50;5.45;;;2.10;;
69381;SDS011;56560;50.692;12.844;2022-12-13T02:53:18;13.73;;;4.07;;
69381;SDS011;56560;50.692;12.844;2022-12-13T02:55:45;6.13;;;1.77;;
69381;SDS011;56560;50.692;12.844;2022-12-13T02:58:11;9.00;;;2.53;;
69381;SDS011;56560;50.692;12.844;2022-12-13T03:00:50;5.35;;;1.70;;
69381;SDS011;56560;50.692;12.844;2022-12-13T03:06:01;10.63;;;3.20;;
69381;SDS011;56560;50.692;12.844;2022-12-13T03:11:21;5.95;;;1.92;;
69381;SDS011;56560;50.692;12.844;2022-12-13T03:13:56;6.40;;;2.17;;
69381;SDS011;56560;50.692;12.844;2022-12-13T03:16:39;9.50;;;2.63;;
69381;SDS011;56560;50.692;12.844;2022-12-13T03:19:10;7.73;;;2.63;;
69381;SDS011;56560;50.692;12.844;2022-12-13T03:21:44;16.27;;;4.38;;
69381;SDS011;56560;50.692;12.844;2022-12-13T03:24:11;14.95;;;4.28;;
69381;SDS011;56560;50.692;12.844;2022-12-13T03:26:38;13.13;;;3.97;;
69381;SDS011;56560;50.692;12.844;2022-12-13T03:29:05;15.30;;;4.28;;
69381;SDS011;56560;50.692;12.844;2022-12-13T03:31:31;14.23;;;3.80;;
69381;SDS011;56560;50.692;12.844;2022-12-13T03:33:57;9.32;;;3.40;;
69381;SDS011;56560;50.692;12.844;2022-12-13T03:36:23;9.47;;;3.00;;
69381;SDS011;56560;50.692;12.844;2022-12-13T03:38:49;13.93;;;3.65;;
69381;SDS011;56560;50.692;12.844;2022-12-13T03:41:18;10.02;;;2.97;;
69381;SDS011;56560;50.692;12.844;2022-12-13T03:43:46;13.85;;;3.80;;
69381;SDS011;56560;50.692;12.844;2022-12-13T03:46:12;13.23;;;3.90;;
69381;SDS011;56560;50.692;12.844;2022-12-13T03:48:38;13.13;;;3.55;;
69381;SDS011;56560;50.692;12.844;2022-12-13T03:51:04;11.03;;;2.67;;
69381;SDS011;56560;50.692;12.844;2022-12-13T03:53:30;11.77;;;3.25;;
69381;SDS011;56560;50.692;12.844;2022-12-13T03:55:56;8.48;;;3.00;;
69381;SDS011;56560;50.692;12.844;2022-12-13T03:58:21;8.37;;;3.10;;
69381;SDS011;56560;50.692;12.844;2022-12-13T04:00:47;5.17;;;1.80;;
69381;SDS011;56560;50.692;12.844;2022-12-13T04:03:13;11.32;;;3.47;;
69381;SDS011;56560;50.692;12.844;2022-12-13T04:05:39;10.35;;;3.35;;
69381;SDS011;56560;50.692;12.844;2022-12-13T04:08:04;6.43;;;2.50;;
69381;SDS011;56560;50.692;12.844;2022-12-13T04:10:31;7.18;;;2.63;;
69381;SDS011;56560;50.692;12.844;2022-12-13T04:12:57;10.27;;;3.30;;
69381;SDS011;56560;50.692;12.844;2022-12-13T04:15:41;8.00;;;2.83;;
69381;SDS011;56560;50.692;12.844;2022-12-13T04:18:13;5.93;;;2.28;;
69381;SDS011;56560;50.692;12.844;2022-12-13T04:20:40;7.57;;;2.72;;
69381;SDS011;56560;50.692;12.844;2022-12-13T04:23:06;15.82;;;4.13;;
69381;SDS011;56560;50.692;12.844;2022-12-13T04:25:32;9.70;;;4.33;;
69381;SDS011;56560;50.692;12.844;2022-12-13T04:27:57;6.97;;;2.50;;
69381;SDS011;56560;50.692;12.844;2022-12-13T04:30:23;7.60;;;2.60;;
69381;SDS011;56560;50.692;12.844;2022-12-13T04:32:48;13.73;;;4.03;;
69381;SDS011;56560;50.692;12.844;2022-12-13T04:35:14;11.93;;;3.53;;
69381;SDS011;56560;50.692;12.844;2022-12-13T04:37:40;12.53;;;4.37;;
69381;SDS011;56560;50.692;12.844;2022-12-13T04:40:05;17.95;;;5.60;;
69381;SDS011;56560;50.692;12.844;2022-12-13T04:42:31;14.13;;;4.15;;
69381;SDS011;56560;50.692;12.844;2022-12-13T04:44:57;13.80;;;4.05;;
69381;SDS011;56560;50.692;12.844;2022-12-13T04:47:23;9.90;;;3.70;;
69381;SDS011;56560;50.692;12.844;2022-12-13T04:49:48;4.47;;;1.73;;
69381;SDS011;56560;50.692;12.844;2022-12-13T04:52:14;6.18;;;1.95;;
69381;SDS011;56560;50.692;12.844;2022-12-13T04:54:40;6.93;;;2.20;;
69381;SDS011;56560;50.692;12.844;2022-12-13T04:57:05;18.40;;;3.20;;
69381;SDS011;56560;50.692;12.844;2022-12-13T04:59:34;9.40;;;3.00;;
69381;SDS011;56560;50.692;12.844;2022-12-13T05:02:00;9.63;;;3.50;;
69381;SDS011;56560;50.692;12.844;2022-12-13T05:04:26;16.35;;;4.93;;
69381;SDS011;56560;50.692;12.844;2022-12-13T05:06:52;13.10;;;3.90;;
69381;SDS011;56560;50.692;12.844;2022-12-13T05:09:17;14.75;;;5.18;;
69381;SDS011;56560;50.692;12.844;2022-12-13T05:11:43;11.55;;;3.60;;
69381;SDS011;56560;50.692;12.844;2022-12-13T05:14:09;12.27;;;4.10;;
69381;SDS011;56560;50.692;12.844;2022-12-13T05:16:34;13.20;;;4.03;;
69381;SDS011;56560;50.692;12.844;2022-12-13T05:19:00;9.00;;;3.97;;
69381;SDS011;56560;50.692;12.844;2022-12-13T05:21:25;11.67;;;4.73;;
69381;SDS011;56560;50.692;12.844;2022-12-13T05:23:51;15.10;;;4.80;;
69381;SDS011;56560;50.692;12.844;2022-12-13T05:26:17;11.52;;;3.90;;
69381;SDS011;56560;50.692;12.844;2022-12-13T05:28:45;8.13;;;3.03;;
69381;SDS011;56560;50.692;12.844;2022-12-13T05:31:10;14.77;;;5.63;;
69381;SDS011;56560;50.692;12.844;2022-12-13T05:33:36;16.20;;;6.07;;
69381;SDS011;56560;50.692;12.844;2022-12-13T05:36:03;21.67;;;6.13;;
69381;SDS011;56560;50.692;12.844;2022-12-13T05:38:29;10.02;;;4.57;;
69381;SDS011;56560;50.692;12.844;2022-12-13T05:40:55;14.55;;;5.90;;
69381;SDS011;56560;50.692;12.844;2022-12-13T05:43:21;23.00;;;7.05;;
69381;SDS011;56560;50.692;12.844;2022-12-13T05:45:48;12.02;;;3.70;;
69381;SDS011;56560;50.692;12.844;2022-12-13T05:48:14;10.73;;;4.13;;
69381;SDS011;56560;50.692;12.844;2022-12-13T05:50:40;7.38;;;2.33;;
69381;SDS011;56560;50.692;12.844;2022-12-13T05:53:05;11.00;;;4.73;;
69381;SDS011;56560;50.692;12.844;2022-12-13T05:55:31;17.90;;;6.20;;
69381;SDS011;56560;50.692;12.844;2022-12-13T05:57:57;12.23;;;4.25;;
69381;SDS011;56560;50.692;12.844;2022-12-13T06:00:24;10.05;;;3.65;;
69381;SDS011;56560;50.692;12.844;2022-12-13T06:02:50;22.88;;;6.97;;
69381;SDS011;56560;50.692;12.844;2022-12-13T06:05:16;14.68;;;4.70;;
69381;SDS011;56560;50.692;12.844;2022-12-13T06:07:41;14.87;;;5.60;;
69381;SDS011;56560;50.692;12.844;2022-12-13T06:10:07;13.55;;;4.13;;
69381;SDS011;56560;50.692;12.844;2022-12-13T06:12:34;14.68;;;5.35;;
69381;SDS011;56560;50.692;12.844;2022-12-13T06:14:59;21.73;;;8.10;;
69381;SDS011;56560;50.692;12.844;2022-12-13T06:17:29;18.58;;;5.93;;
69381;SDS011;56560;50.692;12.844;2022-12-13T06:19:58;13.57;;;3.75;;
69381;SDS011;56560;50.692;12.844;2022-12-13T06:22:24;20.67;;;5.15;;
69381;SDS011;56560;50.692;12.844;2022-12-13T06:24:50;15.10;;;5.23;;
69381;SDS011;56560;50.692;12.844;2022-12-13T06:27:16;14.90;;;5.20;;
69381;SDS011;56560;50.692;12.844;2022-12-13T06:29:42;12.50;;;3.83;;
69381;SDS011;56560;50.692;12.844;2022-12-13T06:32:08;13.40;;;4.47;;
69381;SDS011;56560;50.692;12.844;2022-12-13T06:34:35;15.65;;;6.07;;
69381;SDS011;56560;50.692;12.844;2022-12-13T06:37:02;15.63;;;5.50;;
69381;SDS011;56560;50.692;12.844;2022-12-13T06:39:31;25.10;;;9.25;;
69381;SDS011;56560;50.692;12.844;2022-12-13T06:41:57;30.37;;;10.17;;
69381;SDS011;56560;50.692;12.844;2022-12-13T06:44:22;8.27;;;3.97;;
69381;SDS011;56560;50.692;12.844;2022-12-13T06:46:50;12.15;;;5.05;;
69381;SDS011;56560;50.692;12.844;2022-12-13T06:49:16;25.80;;;9.33;;
69381;SDS011;56560;50.692;12.844;2022-12-13T06:51:41;12.97;;;4.47;;
69381;SDS011;56560;50.692;12.844;2022-12-13T06:54:07;11.07;;;4.40;;
69381;SDS011;56560;50.692;12.844;2022-12-13T06:56:35;21.80;;;7.67;;
69381;SDS011;56560;50.692;12.844;2022-12-13T06:59:01;23.40;;;7.22;;
69381;SDS011;56560;50.692;12.844;2022-12-13T07:01:28;17.17;;;5.85;;
69381;SDS011;56560;50.692;12.844;2022-12-13T07:03:54;43.20;;;14.10;;
69381;SDS011;56560;50.692;12.844;2022-12-13T07:06:20;26.73;;;8.50;;
69381;SDS011;56560;50.692;12.844;2022-12-13T07:08:48;42.47;;;13.48;;
69381;SDS011;56560;50.692;12.844;2022-12-13T07:11:16;70.50;;;22.75;;
69381;SDS011;56560;50.692;12.844;2022-12-13T07:13:43;28.73;;;10.55;;
69381;SDS011;56560;50.692;12.844;2022-12-13T07:16:09;35.27;;;11.03;;
69381;SDS011;56560;50.692;12.844;2022-12-13T07:18:35;21.90;;;7.28;;
69381;SDS011;56560;50.692;12.844;2022-12-13T07:21:05;21.48;;;7.57;;
69381;SDS011;56560;50.692;12.844;2022-12-13T07:23:31;33.87;;;11.23;;
69381;SDS011;56560;50.692;12.844;2022-12-13T07:25:59;22.67;;;7.90;;
69381;SDS011;56560;50.692;12.844;2022-12-13T07:28:24;22.13;;;7.72;;
69381;SDS011;56560;50.692;12.844;2022-12-13T07:30:50;20.40;;;6.77;;
69381;SDS011;56560;50.692;12.844;2022-12-13T07:33:16;25.40;;;8.27;;
69381;SDS011;56560;50.692;12.844;2022-12-13T07:35:42;30.38;;;9.40;;
69381;SDS011;56560;50.692;12.844;2022-12-13T07:38:09;24.53;;;8.37;;
69381;SDS011;56560;50.692;12.844;2022-12-13T07:40:36;13.52;;;5.90;;
69381;SDS011;56560;50.692;12.844;2022-12-13T07:43:03;30.13;;;9.57;;
69381;SDS011;56560;50.692;12.844;2022-12-13T07:45:29;29.48;;;10.57;;
69381;SDS011;56560;50.692;12.844;2022-12-13T07:47:55;25.20;;;9.17;;
69381;SDS011;56560;50.692;12.844;2022-12-13T07:50:20;19.60;;;5.57;;
69381;SDS011;56560;50.692;12.844;2022-12-13T07:52:47;12.40;;;5.05;;
69381;SDS011;56560;50.692;12.844;2022-12-13T07:55:13;29.33;;;9.55;;
69381;SDS011;56560;50.692;12.844;2022-12-13T07:57:40;19.42;;;7.13;;
69381;SDS011;56560;50.692;12.844;2022-12-13T08:00:06;26.40;;;9.63;;
69381;SDS011;56560;50.692;12.844;2022-12-13T08:02:32;28.10;;;9.45;;
69381;SDS011;56560;50.692;12.844;2022-12-13T08:04:58;19.20;;;6.80;;
69381;SDS011;56560;50.692;12.844;2022-12-13T08:07:23;34.33;;;11.73;;
69381;SDS011;56560;50.692;12.844;2022-12-13T08:09:49;17.77;;;6.27;;
69381;SDS011;56560;50.692;12.844;2022-12-13T08:12:14;28.70;;;9.15;;
69381;SDS011;56560;50.692;12.844;2022-12-13T08:14:40;30.17;;;12.77;;
69381;SDS011;56560;50.692;12.844;2022-12-13T08:17:05;29.97;;;9.57;;
69381;SDS011;56560;50.692;12.844;2022-12-13T08:19:31;27.45;;;10.82;;
69381;SDS011;56560;50.692;12.844;2022-12-13T08:21:57;13.90;;;4.97;;
69381;SDS011;56560;50.692;12.844;2022-12-13T08:24:23;17.05;;;7.43;;
69381;SDS011;56560;50.692;12.844;2022-12-13T08:26:50;31.48;;;12.07;;
69381;SDS011;56560;50.692;12.844;2022-12-13T08:29:16;38.53;;;15.63;;
69381;SDS011;56560;50.692;12.844;2022-12-13T08:31:42;33.25;;;10.13;;
69381;SDS011;56560;50.692;12.844;2022-12-13T08:34:07;24.40;;;10.67;;
69381;SDS011;56560;50.692;12.844;2022-12-13T08:36:33;32.53;;;12.23;;
69381;SDS011;56560;50.692;12.844;2022-12-13T08:38:59;26.25;;;9.65;;
69381;SDS011;56560;50.692;12.844;2022-12-13T08:41:27;21.35;;;7.68;;
69381;SDS011;56560;50.692;12.844;2022-12-13T08:43:53;24.80;;;8.80;;
69381;SDS011;56560;50.692;12.844;2022-12-13T08:46:19;16.05;;;6.32;;
69381;SDS011;56560;50.692;12.844;2022-12-13T08:48:44;23.03;;;9.13;;
69381;SDS011;56560;50.692;12.844;2022-12-13T08:51:11;24.38;;;7.82;;
69381;SDS011;56560;50.692;12.844;2022-12-13T08:53:39;21.33;;;7.13;;
69381;SDS011;56560;50.692;12.844;2022-12-13T08:56:05;19.75;;;7.22;;
69381;SDS011;56560;50.692;12.844;2022-12-13T08:58:34;24.60;;;8.85;;
69381;SDS011;56560;50.692;12.844;2022-12-13T09:01:03;25.10;;;9.53;;
69381;SDS011;56560;50.692;12.844;2022-12-13T09:03:32;34.78;;;11.57;;
69381;SDS011;56560;50.692;12.844;2022-12-13T09:06:08;30.67;;;10.18;;
69381;SDS011;56560;50.692;12.844;2022-12-13T09:08:36;36.22;;;12.13;;
69381;SDS011;56560;50.692;12.844;2022-12-13T09:11:04;39.33;;;11.95;;
69381;SDS011;56560;50.692;12.844;2022-12-13T09:13:32;33.27;;;11.60;;
69381;SDS011;56560;50.692;12.844;2022-12-13T09:16:05;25.73;;;9.38;;
69381;SDS011;56560;50.692;12.844;2022-12-13T09:18:33;18.27;;;6.78;;
69381;SDS011;56560;50.692;12.844;2022-12-13T09:20:59;21.30;;;7.07;;
69381;SDS011;56560;50.692;12.844;2022-12-13T09:23:29;39.53;;;14.38;;
69381;SDS011;56560;50.692;12.844;2022-12-13T09:25:55;31.20;;;11.27;;
69381;SDS011;56560;50.692;12.844;2022-12-13T09:28:22;38.00;;;13.57;;
69381;SDS011;56560;50.692;12.844;2022-12-13T09:30:48;41.43;;;14.77;;
69381;SDS011;56560;50.692;12.844;2022-12-13T09:33:14;25.00;;;9.32;;
69381;SDS011;56560;50.692;12.844;2022-12-13T09:35:40;27.77;;;10.38;;
69381;SDS011;56560;50.692;12.844;2022-12-13T09:38:05;35.30;;;13.37;;
69381;SDS011;56560;50.692;12.844;2022-12-13T09:40:31;41.97;;;15.47;;
69381;SDS011;56560;50.692;12.844;2022-12-13T09:42:59;37.47;;;12.95;;
69381;SDS011;56560;50.692;12.844;2022-12-13T09:45:26;38.72;;;12.68;;
69381;SDS011;56560;50.692;12.844;2022-12-13T09:47:54;39.30;;;13.82;;
69381;SDS011;56560;50.692;12.844;2022-12-13T09:50:23;38.78;;;12.52;;
69381;SDS011;56560;50.692;12.844;2022-12-13T09:52:50;37.40;;;13.90;;
69381;SDS011;56560;50.692;12.844;2022-12-13T09:57:50;39.63;;;14.73;;
69381;SDS011;56560;50.692;12.844;2022-12-13T10:00:19;41.08;;;14.13;;
69381;SDS011;56560;50.692;12.844;2022-12-13T10:02:47;28.95;;;11.02;;
69381;SDS011;56560;50.692;12.844;2022-12-13T10:08:06;36.08;;;13.45;;
69381;SDS011;56560;50.692;12.844;2022-12-13T10:10:37;41.85;;;16.38;;
69381;SDS011;56560;50.692;12.844;2022-12-13T10:15:40;23.40;;;8.70;;
69381;SDS011;56560;50.692;12.844;2022-12-13T10:18:12;33.80;;;13.40;;
69381;SDS011;56560;50.692;12.844;2022-12-13T10:20:44;29.40;;;9.52;;
69381;SDS011;56560;50.692;12.844;2022-12-13T10:23:12;24.02;;;9.35;;
69381;SDS011;56560;50.692;12.844;2022-12-13T10:25:42;32.33;;;11.23;;
69381;SDS011;56560;50.692;12.844;2022-12-13T10:28:15;18.20;;;7.07;;
69381;SDS011;56560;50.692;12.844;2022-12-13T10:30:43;35.90;;;11.50;;
69381;SDS011;56560;50.692;12.844;2022-12-13T10:33:30;47.97;;;16.25;;
69381;SDS011;56560;50.692;12.844;2022-12-13T10:36:06;33.90;;;12.97;;
69381;SDS011;56560;50.692;12.844;2022-12-13T10:38:36;43.20;;;15.65;;
69381;SDS011;56560;50.692;12.844;2022-12-13T10:46:39;34.25;;;12.85;;
69381;SDS011;56560;50.692;12.844;2022-12-13T10:49:25;41.20;;;14.10;;
69381;SDS011;56560;50.692;12.844;2022-12-13T10:51:53;16.43;;;6.33;;
69381;SDS011;56560;50.692;12.844;2022-12-13T10:54:30;20.70;;;7.38;;
69381;SDS011;56560;50.692;12.844;2022-12-13T10:56:58;21.60;;;8.43;;
69381;SDS011;56560;50.692;12.844;2022-12-13T10:59:34;22.83;;;8.10;;
69381;SDS011;56560;50.692;12.844;2022-12-13T11:04:48;22.13;;;7.72;;
69381;SDS011;56560;50.692;12.844;2022-12-13T11:07:36;19.73;;;7.65;;
69381;SDS011;56560;50.692;12.844;2022-12-13T11:10:21;27.20;;;9.63;;
69381;SDS011;56560;50.692;12.844;2022-12-13T11:12:49;23.05;;;8.15;;
69381;SDS011;56560;50.692;12.844;2022-12-13T11:15:24;22.15;;;7.95;;
69381;SDS011;56560;50.692;12.844;2022-12-13T11:17:51;28.40;;;10.13;;
69381;SDS011;56560;50.692;12.844;2022-12-13T11:20:23;28.58;;;10.25;;
69381;SDS011;56560;50.692;12.844;2022-12-13T11:23:54;24.85;;;9.60;;
69381;SDS011;56560;50.692;12.844;2022-12-13T11:25:54;31.02;;;10.55;;
69381;SDS011;56560;50.692;12.844;2022-12-13T11:31:12;22.85;;;8.38;;
69381;SDS011;56560;50.692;12.844;2022-12-13T11:36:37;31.23;;;12.57;;
69381;SDS011;56560;50.692;12.844;2022-12-13T11:41:56;30.60;;;12.07;;
69381;SDS011;56560;50.692;12.844;2022-12-13T11:44:49;31.45;;;10.63;;
69381;SDS011;56560;50.692;12.844;2022-12-13T11:47:48;27.70;;;9.95;;
69381;SDS011;56560;50.692;12.844;2022-12-13T11:50:25;28.90;;;11.38;;
69381;SDS011;56560;50.692;12.844;2022-12-13T11:52:57;26.65;;;10.75;;
69381;SDS011;56560;50.692;12.844;2022-12-13T11:55:39;28.23;;;11.23;;
69381;SDS011;56560;50.692;12.844;2022-12-13T11:58:19;29.60;;;11.43;;
69381;SDS011;56560;50.692;12.844;2022-12-13T12:00:48;27.75;;;11.05;;
69381;SDS011;56560;50.692;12.844;2022-12-13T12:06:41;32.65;;;13.75;;
69381;SDS011;56560;50.692;12.844;2022-12-13T12:09:19;31.13;;;11.90;;
69381;SDS011;56560;50.692;12.844;2022-12-13T12:11:53;29.42;;;11.75;;
69381;SDS011;56560;50.692;12.844;2022-12-13T12:14:38;26.75;;;11.32;;
69381;SDS011;56560;50.692;12.844;2022-12-13T12:17:13;26.08;;;10.93;;
69381;SDS011;56560;50.692;12.844;2022-12-13T12:19:41;28.45;;;12.40;;
69381;SDS011;56560;50.692;12.844;2022-12-13T12:24:52;32.72;;;12.93;;
69381;SDS011;56560;50.692;12.844;2022-12-13T12:37:52;34.40;;;15.13;;
69381;SDS011;56560;50.692;12.844;2022-12-13T12:43:31;34.97;;;15.48;;
69381;SDS011;56560;50.692;12.844;2022-12-13T13:03:35;53.28;;;24.17;;
69381;SDS011;56560;50.692;12.844;2022-12-13T13:08:34;45.97;;;20.40;;
69381;SDS011;56560;50.692;12.844;2022-12-13T13:11:04;36.78;;;16.38;;
69381;SDS011;56560;50.692;12.844;2022-12-13T13:13:31;39.58;;;17.27;;
69381;SDS011;56560;50.692;12.844;2022-12-13T13:16:26;36.83;;;16.30;;
69381;SDS011;56560;50.692;12.844;2022-12-13T13:18:52;34.40;;;15.35;;
69381;SDS011;56560;50.692;12.844;2022-12-13T13:26:30;29.52;;;14.32;;
69381;SDS011;56560;50.692;12.844;2022-12-13T13:43:26;46.97;;;21.92;;
69381;SDS011;56560;50.692;12.844;2022-12-13T13:54:07;36.88;;;15.82;;
69381;SDS011;56560;50.692;12.844;2022-12-13T14:14:43;36.90;;;14.27;;
69381;SDS011;56560;50.692;12.844;2022-12-13T14:20:42;61.17;;;21.88;;
69381;SDS011;56560;50.692;12.844;2022-12-13T14:31:12;67.75;;;25.42;;
69381;SDS011;56560;50.692;12.844;2022-12-13T14:33:45;57.13;;;22.47;;
69381;SDS011;56560;50.692;12.844;2022-12-13T14:36:15;50.05;;;18.10;;
69381;SDS011;56560;50.692;12.844;2022-12-13T14:38:42;37.15;;;15.57;;
69381;SDS011;56560;50.692;12.844;2022-12-13T14:41:17;42.28;;;14.52;;
69381;SDS011;56560;50.692;12.844;2022-12-13T14:43:44;48.58;;;18.15;;
69381;SDS011;56560;50.692;12.844;2022-12-13T14:46:11;75.40;;;27.63;;
69381;SDS011;56560;50.692;12.844;2022-12-13T14:48:47;49.47;;;20.23;;
69381;SDS011;56560;50.692;12.844;2022-12-13T14:51:26;41.10;;;15.57;;
69381;SDS011;56560;50.692;12.844;2022-12-13T14:53:58;40.72;;;13.77;;
69381;SDS011;56560;50.692;12.844;2022-12-13T14:56:25;43.28;;;16.20;;
69381;SDS011;56560;50.692;12.844;2022-12-13T14:59:01;34.23;;;14.20;;
69381;SDS011;56560;50.692;12.844;2022-12-13T15:01:36;30.83;;;11.43;;
69381;SDS011;56560;50.692;12.844;2022-12-13T15:09:29;23.80;;;7.63;;
69381;SDS011;56560;50.692;12.844;2022-12-13T15:11:55;27.67;;;9.57;;
69381;SDS011;56560;50.692;12.844;2022-12-13T15:14:22;28.23;;;9.95;;
69381;SDS011;56560;50.692;12.844;2022-12-13T15:16:54;27.67;;;10.65;;
69381;SDS011;56560;50.692;12.844;2022-12-13T15:22:04;34.15;;;12.73;;
69381;SDS011;56560;50.692;12.844;2022-12-13T15:24:38;29.23;;;9.50;;
69381;SDS011;56560;50.692;12.844;2022-12-13T15:27:05;35.13;;;12.27;;
69381;SDS011;56560;50.692;12.844;2022-12-13T15:29:35;43.88;;;17.10;;
69381;SDS011;56560;50.692;12.844;2022-12-13T15:32:01;35.10;;;13.00;;
69381;SDS011;56560;50.692;12.844;2022-12-13T15:37:14;30.27;;;11.33;;
69381;SDS011;56560;50.692;12.844;2022-12-13T15:39:42;40.50;;;14.25;;
69381;SDS011;56560;50.692;12.844;2022-12-13T15:42:15;42.70;;;15.05;;
69381;SDS011;56560;50.692;12.844;2022-12-13T15:44:52;31.63;;;11.33;;
69381;SDS011;56560;50.692;12.844;2022-12-13T15:47:21;54.40;;;17.90;;
69381;SDS011;56560;50.692;12.844;2022-12-13T15:57:31;38.10;;;13.27;;
69381;SDS011;56560;50.692;12.844;2022-12-13T16:00:17;45.42;;;14.18;;
69381;SDS011;56560;50.692;12.844;2022-12-13T16:05:54;35.10;;;12.13;;
69381;SDS011;56560;50.692;12.844;2022-12-13T16:10:54;28.27;;;11.23;;
69381;SDS011;56560;50.692;12.844;2022-12-13T16:13:31;36.35;;;11.63;;
69381;SDS011;56560;50.692;12.844;2022-12-13T16:19:11;46.75;;;16.90;;
69381;SDS011;56560;50.692;12.844;2022-12-13T16:21:39;37.05;;;14.10;;
69381;SDS011;56560;50.692;12.844;2022-12-13T16:24:05;27.97;;;9.23;;
69381;SDS011;56560;50.692;12.844;2022-12-13T16:26:32;17.80;;;7.85;;
69381;SDS011;56560;50.692;12.844;2022-12-13T16:28:58;42.47;;;12.50;;
69381;SDS011;56560;50.692;12.844;2022-12-13T16:31:25;19.03;;;9.20;;
69381;SDS011;56560;50.692;12.844;2022-12-13T16:33:55;28.75;;;11.15;;
69381;SDS011;56560;50.692;12.844;2022-12-13T16:36:21;44.67;;;16.13;;
69381;SDS011;56560;50.692;12.844;2022-12-13T16:38:46;47.77;;;16.23;;
69381;SDS011;56560;50.692;12.844;2022-12-13T16:41:12;45.57;;;17.73;;
69381;SDS011;56560;50.692;12.844;2022-12-13T16:43:54;40.63;;;14.65;;
69381;SDS011;56560;50.692;12.844;2022-12-13T16:46:21;62.47;;;23.05;;
69381;SDS011;56560;50.692;12.844;2022-12-13T16:48:47;41.05;;;18.17;;
69381;SDS011;56560;50.692;12.844;2022-12-13T16:51:13;49.30;;;18.43;;
69381;SDS011;56560;50.692;12.844;2022-12-13T16:53:39;68.43;;;24.60;;
69381;SDS011;56560;50.692;12.844;2022-12-13T16:56:12;74.72;;;26.67;;
69381;SDS011;56560;50.692;12.844;2022-12-13T16:58:40;70.10;;;25.07;;
69381;SDS011;56560;50.692;12.844;2022-12-13T17:01:11;48.45;;;18.85;;
69381;SDS011;56560;50.692;12.844;2022-12-13T17:03:38;46.88;;;17.25;;
69381;SDS011;56560;50.692;12.844;2022-12-13T17:06:04;47.92;;;19.85;;
69381;SDS011;56560;50.692;12.844;2022-12-13T17:08:30;42.47;;;16.25;;
69381;SDS011;56560;50.692;12.844;2022-12-13T17:10:57;34.08;;;14.40;;
69381;SDS011;56560;50.692;12.844;2022-12-13T17:13:24;71.78;;;24.80;;
69381;SDS011;56560;50.692;12.844;2022-12-13T17:15:50;78.18;;;25.40;;
69381;SDS011;56560;50.692;12.844;2022-12-13T17:18:16;53.10;;;22.80;;
69381;SDS011;56560;50.692;12.844;2022-12-13T17:20:42;60.20;;;20.52;;
69381;SDS011;56560;50.692;12.844;2022-12-13T17:23:08;39.30;;;13.75;;
69381;SDS011;56560;50.692;12.844;2022-12-13T17:25:38;52.40;;;18.40;;